Create Custom Reports and Graphics: Custom Report

Scotts Valley

Current Conditions

5/3/26 2:45 PM (-07:00)
Updated Every 15 Minutes
Temp 66.9 °F   7.5
RH 60 %   20
Dew Pt 52.6 °F   4.2
Wet Bulb 58.9 °F   0.4
Wind Dir SSW | 192 °
Wind Spd 3.5 mph   1.8
Wind Gust 8.7 mph   4.6
BatVolt 13.3 V   0.1
Month Precip 0.00 In
Season Precip 26.00 In

Today & Yesterday

Midnight to Midnight

5/3/26 2:45 PM (-07:00)
Updated Every 15 Minutes
Daily Max Temp 67.7 °F   9.5
Time of Max Temp 1434
Daily Min Temp 44.4 °F   0.2
Time of Min Temp 0402
Daily Max Wind 10.0 mph   3.3
Time of Max Wind 1357
Max Wind Dir W | 266 °
Daily Rain 0.00 In
Daily Leaf Wet 5.4 Hrs   0.4
Yest MaxT 77.2 °F
Yest MinT 44.6 °F
Yest MaxGst 13.3 mph
Yest Precip 0.00 In
Yest Leaf Wet 5.8 Hrs

Last 7 Days

Scotts Valley

Hourly Data | America/Los_Angeles
as of 5/3/26 2:53 PM PDT
Date & Time Temp (°F) RH (%) Dew Pt (°F) Wind Dir (°) Wind Spd (mph) Wind Gust (mph) Leaf Wet (mins) BatVolt (V) Latest Rain (In) Daily Rain (In) Daily Min Temp (°F) Daily Max Temp (°F) Daily Max Wind (mph) Daily Leaf Wet (Hrs)
5/3/26 - 1400 65.0 63 52.0 S | 182 3.5 10.0 0.0 13.3 0.00 0.00 44.4 66.3 10.0 5.4
5/3/26 - 1300 62.7 66 51.2 SSW | 192 3.1 8.6 0.0 13.4 0.00 0.00 44.4 63.8 8.6 5.4
5/3/26 - 1200 62.1 67 51.2 S | 169 2.4 7.8 0.0 13.3 0.00 0.00 44.4 63.7 7.8 5.4
5/3/26 - 1100 60.1 70 50.4 SE | 136 1.8 6.9 0.0 13.4 0.00 0.00 44.4 62.9 6.9 5.4
5/3/26 - 1000 56.9 78 50.0 S | 189 2.0 6.4 0.0 13.5 0.00 0.00 44.4 59.1 6.4 5.4
5/3/26 - 0900 53.4 90 50.5 SW | 226 1.3 4.1 0.0 13.6 0.00 0.00 44.4 55.2 4.1 5.4
5/3/26 - 0800 49.3 100 49.3 SW | 236 0.4 3.2 44.4 13.0 0.00 0.00 44.4 51.5 3.2 5.4
5/3/26 - 0700 44.9 99 44.6 SW | 217 0.1 1.1 60.0 12.6 0.00 0.00 44.4 46.9 1.9 4.6
5/3/26 - 0600 44.8 98 44.4 WSW | 251 0.1 1.0 60.0 12.5 0.00 0.00 44.4 46.9 1.9 3.6
5/3/26 - 0500 45.3 99 45.0 W | 259 0.4 1.9 60.0 12.5 0.00 0.00 44.4 46.9 1.9 2.6
5/3/26 - 0400 45.0 97 44.3 WSW | 241 0.1 1.1 60.0 12.6 0.00 0.00 44.4 46.9 1.1 1.6
5/3/26 - 0300 45.7 97 44.9 WSW | 241 0.0 0.5 38.0 12.6 0.00 0.00 45.3 46.9 0.7 0.6
5/3/26 - 0200 46.5 96 45.4 WSW | 240 0.0 0.7 0.0 12.6 0.00 0.00 46.1 46.9 0.7 0.0
5/3/26 - 0100 47.7 95 46.4 WSW | 240 0.0 1.0 0.0 12.7 0.00 0.00 44.6 77.2 13.3 5.8
5/3/26 - 0000 48.9 93 46.9 WSW | 240 0.0 0.9 0.0 12.7 0.00 0.00 44.6 77.2 13.3 5.8
5/2/26 - 2300 51.3 89 48.3 SW | 227 0.2 2.6 0.0 12.8 0.00 0.00 44.6 77.2 13.3 5.8
5/2/26 - 2200 53.1 86 49.2 SSW | 200 1.2 2.8 0.0 12.9 0.00 0.00 44.6 77.2 13.3 5.8
5/2/26 - 2100 56.0 77 48.9 S | 182 0.9 3.5 0.0 13.0 0.00 0.00 44.6 77.2 13.3 5.8
5/2/26 - 2000 63.2 62 49.8 S | 177 1.2 4.5 0.0 13.2 0.00 0.00 44.6 77.2 13.3 5.8
5/2/26 - 1900 67.1 54 49.9 SSW | 212 2.3 5.9 0.0 13.3 0.00 0.00 44.6 77.2 13.3 5.8
5/2/26 - 1800 69.1 49 49.3 SW | 227 3.9 10.3 0.0 13.3 0.00 0.00 44.6 77.2 13.3 5.8
5/2/26 - 1700 73.0 41 47.6 SW | 218 4.5 11.1 0.0 13.2 0.00 0.00 44.6 77.2 13.3 5.8
5/2/26 - 1600 74.1 35 44.8 SW | 221 3.6 9.8 0.0 13.2 0.00 0.00 44.6 77.2 13.3 5.8
5/2/26 - 1500 75.1 39 48.5 SSW | 206 4.6 13.3 0.0 13.2 0.00 0.00 44.6 77.2 13.3 5.8
5/2/26 - 1400 74.9 36 46.0 ESE | 106 4.3 11.8 0.0 13.2 0.00 0.00 44.6 77.2 11.8 5.8
5/2/26 - 1300 72.6 39 46.2 ESE | 110 3.8 9.4 0.0 13.2 0.00 0.00 44.6 73.8 9.4 5.8
5/2/26 - 1200 70.6 45 48.2 ESE | 117 3.2 8.3 0.0 13.2 0.00 0.00 44.6 71.9 8.3 5.8
5/2/26 - 1100 68.6 59 53.5 ESE | 121 2.2 7.6 0.0 13.2 0.00 0.00 44.6 69.3 7.6 5.8
5/2/26 - 1000 64.2 69 53.8 NE | 45 0.8 4.2 0.0 13.4 0.00 0.00 44.6 67.5 4.2 5.8
5/2/26 - 0900 56.0 88 52.5 SE | 141 0.4 1.8 0.0 13.5 0.00 0.00 44.6 61.2 2.3 5.8
5/2/26 - 0800 48.7 100 48.6 SSW | 202 0.1 1.4 34.0 13.2 0.00 0.00 44.6 51.8 2.3 5.8
5/2/26 - 0700 45.5 99 45.2 WNW | 303 0.5 2.3 60.0 12.6 0.00 0.00 44.6 49.2 2.3 5.2
5/2/26 - 0600 45.5 99 45.2 NW | 307 0.2 1.5 60.0 12.5 0.00 0.00 44.6 49.2 1.5 4.2
5/2/26 - 0500 44.8 98 44.3 NW | 324 0.2 1.3 60.0 12.5 0.00 0.00 44.6 49.2 1.3 3.2
5/2/26 - 0400 45.4 97 44.6 NW | 322 0.0 0.7 60.0 12.5 0.00 0.00 44.8 49.2 1.3 2.2
5/2/26 - 0300 46.4 96 45.3 NW | 323 0.0 0.1 60.0 12.6 0.00 0.00 45.7 49.2 1.3 1.2
5/2/26 - 0200 47.8 96 46.6 NW | 322 0.1 1.3 12.3 12.6 0.00 0.00 46.9 49.2 1.3 0.2
5/2/26 - 0100 49.8 95 48.3 W | 259 0.1 4.3 0.0 12.6 0.00 0.00 40.4 83.4 8.7 3.4
5/2/26 - 0000 52.3 93 50.4 SSW | 201 0.1 0.9 0.0 12.7 0.00 0.00 40.4 83.4 8.7 3.4
5/1/26 - 2300 54.3 90 51.6 SSW | 199 0.2 1.2 0.0 12.8 0.00 0.00 40.4 83.4 8.7 3.4
5/1/26 - 2200 58.2 85 53.8 SSW | 210 0.7 2.6 0.0 12.9 0.00 0.00 40.4 83.4 8.7 3.4
5/1/26 - 2100 64.2 73 55.5 SSW | 207 0.8 3.7 0.0 13.0 0.00 0.00 40.4 83.4 8.7 3.4
5/1/26 - 2000 70.3 64 57.5 SW | 227 1.9 8.6 0.0 13.1 0.00 0.00 40.4 83.4 8.7 3.4
5/1/26 - 1900 75.6 48 54.3 SW | 229 3.3 8.7 0.0 13.3 0.00 0.00 40.4 83.4 8.7 3.4
5/1/26 - 1800 81.2 33 49.4 SW | 230 3.2 8.3 0.0 13.1 0.00 0.00 40.4 83.4 8.4 3.4
5/1/26 - 1700 81.4 33 49.1 SW | 232 3.3 8.4 0.0 13.1 0.00 0.00 40.4 83.4 8.4 3.4
5/1/26 - 1600 81.2 34 49.9 SW | 216 3.1 8.4 0.0 13.1 0.00 0.00 40.4 83.4 8.4 3.4
5/1/26 - 1500 81.3 36 51.7 SSE | 164 2.8 8.3 0.0 13.1 0.00 0.00 40.4 83.2 8.3 3.4
5/1/26 - 1400 79.5 41 53.4 E | 100 3.2 7.2 0.0 13.1 0.00 0.00 40.4 80.7 7.2 3.4
5/1/26 - 1300 77.7 43 53.1 E | 101 2.6 6.2 0.0 13.1 0.00 0.00 40.4 78.6 6.2 3.4
5/1/26 - 1200 75.4 49 55.2 E | 96 2.6 6.1 0.0 13.2 0.00 0.00 40.4 77.0 6.1 3.4
5/1/26 - 1100 72.5 53 54.6 ENE | 69 1.5 5.3 0.0 13.2 0.00 0.00 40.4 74.3 5.3 3.4
5/1/26 - 1000 68.1 56 52.0 ENE | 59 0.9 3.9 0.0 13.3 0.00 0.00 40.4 70.0 3.9 3.4
5/1/26 - 0900 60.6 71 51.0 NE | 50 0.1 1.5 0.0 13.4 0.00 0.00 40.4 65.0 1.5 3.4
5/1/26 - 0800 48.3 96 47.3 WSW | 248 0.0 0.9 14.0 13.1 0.00 0.00 40.4 55.6 1.5 3.4
5/1/26 - 0700 40.7 98 40.2 WSW | 248 0.0 0.7 60.0 12.6 0.00 0.00 40.4 45.3 1.5 3.1
5/1/26 - 0600 41.0 98 40.4 WSW | 249 0.2 1.5 60.0 12.5 0.00 0.00 40.6 45.3 1.5 2.1
5/1/26 - 0500 41.6 97 40.9 WSW | 250 0.0 1.1 60.0 12.5 0.00 0.00 41.2 45.3 1.5 1.1
5/1/26 - 0400 42.5 96 41.6 WSW | 250 0.1 0.8 8.1 12.5 0.00 0.00 42.1 45.3 1.5 0.1
5/1/26 - 0300 43.4 96 42.4 WSW | 250 0.3 1.0 0.0 12.6 0.00 0.00 42.9 45.3 1.5 0.0
5/1/26 - 0200 44.7 94 43.1 WSW | 249 0.1 1.5 0.0 12.6 0.00 0.00 44.0 45.3 1.5 0.0
5/1/26 - 0100 46.1 92 43.9 WSW | 248 0.2 1.6 0.0 12.6 0.00 0.00 35.9 84.2 12.7 3.0
5/1/26 - 0000 48.2 85 44.0 WSW | 249 0.1 1.2 0.0 12.7 0.00 0.00 35.9 84.2 12.7 3.0
4/30/26 - 2300 51.2 77 44.3 WSW | 248 0.2 1.4 0.0 12.8 0.00 0.00 35.9 84.2 12.7 3.0
4/30/26 - 2200 55.8 66 44.6 WSW | 251 0.3 1.9 0.0 12.8 0.00 0.00 35.9 84.2 12.7 3.0
4/30/26 - 2100 62.8 52 44.8 NNW | 333 0.6 3.5 0.0 12.9 0.00 0.00 35.9 84.2 12.7 3.0
4/30/26 - 2000 71.3 41 46.3 NW | 324 0.9 4.8 0.0 13.1 0.00 0.00 35.9 84.2 12.7 3.0
4/30/26 - 1900 76.5 37 48.4 W | 271 3.2 12.7 0.0 13.2 0.00 0.00 35.9 84.2 12.7 3.0
4/30/26 - 1800 80.1 39 53.1 W | 279 3.2 12.6 0.0 13.1 0.00 0.00 35.9 84.2 12.6 3.0
4/30/26 - 1700 81.5 35 51.0 WSW | 248 2.8 9.8 0.0 13.1 0.00 0.00 35.9 84.2 9.8 3.0
4/30/26 - 1600 83.3 31 49.7 S | 177 2.6 7.7 0.0 13.0 0.00 0.00 35.9 84.2 8.4 3.0
4/30/26 - 1500 80.8 32 48.3 ESE | 114 2.9 8.4 0.0 13.1 0.00 0.00 35.9 82.1 8.4 3.0
4/30/26 - 1400 79.2 33 47.9 ESE | 123 2.5 6.4 0.0 13.1 0.00 0.00 35.9 80.4 7.3 3.0
4/30/26 - 1300 76.8 39 50.0 ESE | 106 2.6 7.3 0.0 13.1 0.00 0.00 35.9 78.4 7.3 3.0
4/30/26 - 1200 73.7 46 51.7 ESE | 113 1.8 5.9 0.0 13.1 0.00 0.00 35.9 75.4 5.9 3.0
4/30/26 - 1100 69.5 51 50.4 ENE | 78 1.6 5.2 0.0 13.2 0.00 0.00 35.9 71.8 5.2 3.0
4/30/26 - 1000 64.9 53 47.2 ENE | 73 0.9 4.9 0.0 13.3 0.00 0.00 35.9 66.6 4.9 3.0
4/30/26 - 0900 57.5 68 46.8 ENE | 76 0.5 3.2 0.0 13.4 0.00 0.00 35.9 62.4 3.2 3.0
4/30/26 - 0800 44.5 96 43.4 W | 277 0.1 2.0 11.2 13.1 0.00 0.00 35.9 51.2 2.0 3.0
4/30/26 - 0700 36.3 98 35.8 NNW | 336 0.0 0.4 60.0 12.5 0.00 0.00 35.9 41.4 1.4 2.8
4/30/26 - 0600 36.6 97 35.9 NNW | 336 0.1 1.2 60.0 12.5 0.00 0.00 36.0 41.4 1.4 1.8
4/30/26 - 0500 37.3 97 36.5 NNW | 335 0.0 0.7 50.3 12.5 0.00 0.00 36.9 41.4 1.4 0.8
4/30/26 - 0400 38.0 96 37.0 NNW | 336 0.0 0.8 0.0 12.5 0.00 0.00 37.5 41.4 1.4 0.0
4/30/26 - 0300 39.1 95 37.8 NNW | 340 0.0 0.8 0.0 12.6 0.00 0.00 38.4 41.4 1.4 0.0
4/30/26 - 0200 40.6 93 38.8 NNW | 344 0.1 1.4 0.0 12.6 0.00 0.00 39.8 41.4 1.4 0.0
4/30/26 - 0100 42.4 90 39.6 NNW | 345 0.0 1.0 0.0 12.6 0.00 0.00 35.4 79.5 12.9 5.0
4/30/26 - 0000 45.1 85 40.7 WNW | 302 0.3 2.0 0.0 12.7 0.00 0.00 35.4 79.5 12.9 5.0
4/29/26 - 2300 49.4 72 40.8 WSW | 242 0.1 1.2 0.0 12.8 0.00 0.00 35.4 79.5 12.9 5.0
4/29/26 - 2200 56.0 51 37.9 WSW | 258 0.8 4.1 0.0 12.9 0.00 0.00 35.4 79.5 12.9 5.0
4/29/26 - 2100 60.0 48 40.4 NW | 304 0.4 3.5 0.0 13.0 0.00 0.00 35.4 79.5 12.9 5.0
4/29/26 - 2000 66.8 43 43.3 W | 266 2.2 7.7 0.0 13.1 0.00 0.00 35.4 79.5 12.9 5.0
4/29/26 - 1900 73.0 37 45.2 WNW | 284 2.0 11.2 0.0 13.2 0.00 0.00 35.4 79.5 12.9 5.0
4/29/26 - 1800 75.0 36 46.3 W | 267 4.3 12.8 0.0 13.2 0.00 0.00 35.4 79.5 12.9 5.0
4/29/26 - 1700 77.3 39 50.5 W | 275 3.7 12.9 0.0 13.1 0.00 0.00 35.4 79.5 12.9 5.0
4/29/26 - 1600 78.6 33 47.4 W | 272 2.7 9.0 0.0 13.1 0.00 0.00 35.4 79.5 9.3 5.0
4/29/26 - 1500 77.0 34 46.6 SW | 234 2.6 9.3 0.0 13.1 0.00 0.00 35.4 78.2 9.3 5.0
4/29/26 - 1400 75.0 34 44.5 SW | 217 2.1 8.3 0.0 13.1 0.00 0.00 35.4 76.0 8.3 5.0
4/29/26 - 1300 73.2 36 44.7 ESE | 104 2.3 7.7 0.0 13.2 0.00 0.00 35.4 74.3 7.7 5.0
4/29/26 - 1200 70.0 47 48.5 SE | 137 2.0 7.6 0.0 13.2 0.00 0.00 35.4 71.8 7.6 5.0
4/29/26 - 1100 65.9 56 50.0 ENE | 62 1.4 4.6 0.0 13.2 0.00 0.00 35.4 68.2 5.5 5.0
4/29/26 - 1000 62.0 62 49.1 E | 84 1.6 5.5 0.0 13.4 0.00 0.00 35.4 64.0 5.5 5.0
4/29/26 - 0900 57.2 74 48.7 ENE | 72 1.0 4.5 0.0 13.5 0.00 0.00 35.4 60.6 4.5 5.0
4/29/26 - 0800 44.7 97 43.9 ESE | 109 0.6 2.2 14.8 13.2 0.00 0.00 35.4 52.3 2.2 5.0
4/29/26 - 0700 35.6 98 35.2 ENE | 71 0.0 0.7 60.0 12.5 0.00 0.00 35.4 40.8 1.3 4.8
4/29/26 - 0600 36.1 98 35.5 ENE | 71 0.1 1.0 60.0 12.5 0.00 0.00 35.5 40.8 1.3 3.8
4/29/26 - 0500 36.9 98 36.3 ENE | 72 0.1 1.0 60.0 12.5 0.00 0.00 36.6 40.8 1.3 2.8
4/29/26 - 0400 37.7 97 37.0 ENE | 71 0.1 1.1 60.0 12.6 0.00 0.00 37.2 40.8 1.3 1.8
4/29/26 - 0300 39.1 97 38.3 ENE | 70 0.2 1.3 46.9 12.6 0.00 0.00 38.2 40.8 1.3 0.8
4/29/26 - 0200 40.2 96 39.1 ENE | 69 0.1 1.1 0.0 12.6 0.00 0.00 39.3 40.8 1.1 0.0
4/29/26 - 0100 41.6 95 40.2 ENE | 69 0.3 1.3 0.0 12.7 0.00 0.00 33.9 72.4 10.1 5.6
4/29/26 - 0000 43.7 91 41.2 ENE | 68 0.2 1.9 0.0 12.8 0.00 0.00 33.9 72.4 10.1 5.6
4/28/26 - 2300 46.7 83 41.8 NE | 39 0.2 1.6 0.0 12.8 0.00 0.00 33.9 72.4 10.1 5.6
4/28/26 - 2200 52.2 71 43.0 WSW | 247 0.5 2.7 0.0 12.9 0.00 0.00 33.9 72.4 10.1 5.6
4/28/26 - 2100 57.0 63 44.6 W | 272 0.6 3.7 0.0 13.0 0.00 0.00 33.9 72.4 10.1 5.6
4/28/26 - 2000 62.4 55 46.0 W | 269 2.0 8.2 0.0 13.2 0.00 0.00 33.9 72.4 10.1 5.6
4/28/26 - 1900 67.6 50 48.5 WNW | 289 1.5 9.4 0.0 13.3 0.00 0.00 33.9 72.4 10.1 5.6
4/28/26 - 1800 66.7 52 48.4 W | 274 3.1 10.1 0.0 13.4 0.00 0.00 33.9 72.4 10.1 5.6
4/28/26 - 1700 70.2 41 45.4 SSW | 211 1.8 8.9 0.0 13.3 0.00 0.00 33.9 72.4 9.0 5.6
4/28/26 - 1600 69.7 40 44.3 SSW | 197 1.6 7.0 0.0 13.3 0.00 0.00 33.9 72.4 9.0 5.6
4/28/26 - 1500 70.4 37 43.0 ENE | 77 2.6 9.0 0.0 13.2 0.00 0.00 33.9 71.6 9.0 5.6
4/28/26 - 1400 68.4 42 44.1 SE | 129 2.6 8.0 0.0 13.2 0.00 0.00 33.9 69.4 8.2 5.6
4/28/26 - 1300 66.7 45 44.8 E | 97 3.0 8.0 0.0 13.2 0.00 0.00 33.9 67.6 8.2 5.6
4/28/26 - 1200 64.9 47 44.3 ESE | 102 2.8 8.2 0.0 13.3 0.00 0.00 33.9 66.3 8.2 5.6
4/28/26 - 1100 62.1 58 47.1 ESE | 112 2.4 6.7 0.0 13.3 0.00 0.00 33.9 63.6 6.7 5.6
4/28/26 - 1000 59.0 67 48.3 SE | 132 1.1 6.0 0.0 13.4 0.00 0.00 33.9 61.3 6.0 5.6
4/28/26 - 0900 52.8 80 46.9 NE | 35 0.4 2.2 0.0 13.5 0.00 0.00 33.9 56.7 4.4 5.6
4/28/26 - 0800 42.6 99 42.4 WNW | 294 0.4 4.4 17.2 13.2 0.00 0.00 33.9 48.5 4.4 5.6
4/28/26 - 0700 34.4 98 34.0 SW | 220 0.1 1.2 60.0 12.6 0.00 0.00 33.9 40.8 1.9 5.3
4/28/26 - 0600 35.0 98 34.4 SSW | 212 0.1 1.8 60.0 12.5 0.00 0.00 34.4 40.8 1.9 4.3
4/28/26 - 0500 36.1 98 35.5 SSW | 195 0.3 1.9 60.0 12.6 0.00 0.00 35.4 40.8 1.9 3.3
4/28/26 - 0400 36.8 97 36.1 SSW | 197 0.1 1.0 60.0 12.6 0.00 0.00 36.4 40.8 1.1 2.3
4/28/26 - 0300 38.0 97 37.1 SSW | 197 0.1 1.1 60.0 12.6 0.00 0.00 37.3 40.8 1.1 1.3
4/28/26 - 0200 39.6 96 38.5 SSW | 201 0.1 1.0 20.4 12.7 0.00 0.00 38.5 40.8 1.0 0.3
4/28/26 - 0100 41.4 94 39.8 SSW | 211 0.1 1.0 0.0 12.7 0.00 0.00 40.5 66.6 13.2 0.0
4/28/26 - 0000 44.2 90 41.5 SSW | 198 0.4 1.8 0.0 12.8 0.00 0.00 42.2 66.6 13.2 0.0
4/27/26 - 2300 48.4 84 43.8 WSW | 243 0.5 1.9 0.0 12.9 0.00 0.00 42.2 66.6 13.2 0.0
4/27/26 - 2200 51.1 79 44.7 WSW | 245 0.5 3.5 0.0 13.0 0.00 0.00 42.2 66.6 13.2 0.0
4/27/26 - 2100 53.5 73 45.2 W | 261 1.2 7.1 0.0 13.1 0.00 0.00 42.2 66.6 13.2 0.0
4/27/26 - 2000 56.3 66 45.2 WNW | 296 1.0 8.9 0.0 13.2 0.00 0.00 42.2 66.6 13.2 0.0
4/27/26 - 1900 59.1 64 46.9 WNW | 294 1.7 10.0 0.0 13.4 0.00 0.00 42.2 66.6 13.2 0.0
4/27/26 - 1800 59.6 64 47.6 NW | 318 2.3 9.5 0.0 13.5 0.00 0.00 42.2 66.6 13.2 0.0
4/27/26 - 1700 63.4 50 44.0 ENE | 58 3.4 13.2 0.0 13.4 0.00 0.00 42.2 66.6 13.2 0.0
4/27/26 - 1600 64.4 44 42.2 E | 100 3.4 10.1 0.0 13.3 0.00 0.00 42.2 66.6 11.6 0.0
4/27/26 - 1500 63.7 46 42.6 E | 89 3.0 9.3 0.0 13.3 0.00 0.00 42.2 65.1 11.6 0.0
4/27/26 - 1400 62.4 49 43.0 SE | 132 3.2 10.2 0.0 13.3 0.00 0.00 42.2 63.6 11.6 0.0
4/27/26 - 1300 61.1 52 43.2 SE | 127 3.4 11.6 0.0 13.3 0.00 0.00 42.2 62.7 11.6 0.0
4/27/26 - 1200 60.1 53 43.2 SE | 133 4.3 11.4 0.0 13.3 0.00 0.00 42.2 61.3 11.4 0.0
4/27/26 - 1100 58.4 57 43.2 SE | 137 2.9 9.1 0.0 13.4 0.00 0.00 42.2 60.0 9.1 0.0
4/27/26 - 1000 55.3 67 44.4 N | 8 1.6 6.6 0.0 13.4 0.00 0.00 42.2 57.4 6.6 0.0
4/27/26 - 0900 51.3 77 44.2 NW | 322 0.5 3.3 0.0 13.6 0.00 0.00 42.2 54.3 4.1 0.0
4/27/26 - 0800 46.6 92 44.3 W | 265 0.4 3.5 0.0 13.1 0.00 0.00 42.2 48.9 4.1 0.0
4/27/26 - 0700 43.2 95 41.9 SW | 229 0.2 1.3 0.0 12.6 0.00 0.00 42.2 47.8 4.1 0.0
4/27/26 - 0600 43.8 95 42.4 WSW | 238 0.3 2.2 0.0 12.5 0.00 0.00 43.0 47.8 4.1 0.0
4/27/26 - 0500 43.3 92 41.2 W | 269 0.1 2.3 0.0 12.6 0.00 0.00 43.0 47.8 4.1 0.0
4/27/26 - 0400 46.0 86 42.1 W | 267 0.1 1.3 0.0 12.6 0.00 0.00 44.0 47.8 4.1 0.0
4/27/26 - 0300 47.5 83 42.7 WNW | 286 0.4 2.5 0.0 12.6 0.00 0.00 47.3 47.8 4.1 0.0
4/27/26 - 0200 47.6 83 42.6 WNW | 294 0.7 4.1 0.0 12.7 0.00 0.00 47.4 47.8 4.1 0.0
4/27/26 - 0100 47.6 83 42.7 WNW | 296 1.0 5.6 0.0 12.7 0.00 0.00 44.1 61.8 14.5 0.0
4/27/26 - 0000 47.9 83 42.9 W | 264 1.4 4.7 0.0 12.8 0.00 0.00 44.1 61.8 14.5 0.0
4/26/26 - 2300 48.6 80 42.6 W | 273 1.5 7.2 0.0 12.9 0.00 0.00 44.1 61.8 14.5 0.0
4/26/26 - 2200 49.6 76 42.2 WNW | 292 1.4 8.4 0.0 13.0 0.00 0.00 44.1 61.8 14.5 0.0
4/26/26 - 2100 50.6 74 42.5 NW | 304 1.5 7.3 0.0 13.1 0.00 0.00 44.1 61.8 14.5 0.0
4/26/26 - 2000 52.1 71 43.1 W | 280 2.5 11.0 0.0 13.2 0.00 0.00 44.1 61.8 14.5 0.0
4/26/26 - 1900 55.8 63 43.6 W | 274 4.1 14.1 0.0 13.5 0.00 0.00 44.1 61.8 14.5 0.0
4/26/26 - 1800 58.8 58 44.0 W | 264 5.1 14.5 0.0 13.4 0.00 0.00 44.1 61.8 14.5 0.0
4/26/26 - 1700 58.4 57 43.2 WSW | 258 5.0 13.8 0.0 13.4 0.00 0.00 44.1 61.8 14.1 0.0
4/26/26 - 1600 59.6 55 43.3 WSW | 250 4.5 14.1 0.0 13.4 0.00 0.00 44.1 61.8 14.1 0.0
4/26/26 - 1500 58.8 56 43.0 SW | 230 4.8 12.4 0.0 13.4 0.00 0.00 44.1 60.9 12.4 0.0
Max 83.3 100 57.5 - 5.1 14.5 60.0 13.6 0.00 0.00 47.4 84.2 14.5 5.8
Avg 56.7 70 45.2 - 1.4 5.2 10.1 13.0 0.00 - - - - -
Min 34.4 31 34.0 - 0.0 0.1 0.0 12.5 0.00 0.00 33.9 40.8 0.7 0.0
Total - - - - - - - - 0.00 - - - - -

Last 30 Days

Scotts Valley

Daily Data | America/Los_Angeles
as of 5/3/26 2:53 PM PDT
Date Daily Max Temp (°F) Time of Max Temp Daily Min Temp (°F) Time of Min Temp Daily Rain (In) Month Precip (In) Season Precip (In) Daily Max Wind (mph) Time of Max Wind Max Wind Dir (°) Wind Spd (mph) Dew Pt (°F) Daily Max RH (%) Daily Min RH (%) Daily Leaf Wet (Hrs) Degree Hrs (hrs) Chilling <=45F (hrs) Chill Hrs 32-45F (hrs) Utah Chilling (Units) Chill Portions Hrs <= 32F (hrs) Hrs <= 28F (hrs) GDDs (DL) GDDs (Mx/Mn) Seas GDDs (DL) Seas GDDs (Smpl) Hrs 70-85F (hrs) Hrs > 95F (hrs) Powdery Mildew Stress (pts) Bee Hrs Today (Hrs) Storm Total (In) Daily Max Rain Intensity (In/Hr) Time of Max Rain Intensity Max 1 Min Rain (In) Max 1 Min Rain Time Max 15 Min Rain (In) Max 15 Min Precip Time Max 60 Min Rain (In) Max 60 Min Rain Time MinBV Day (V)
5/2/26 77.2 1345 44.6 0427 0.00 0.00 26.00 13.3 1440 SW | 225 1.6 47.9 100 29 5.8 60.1 1.0 1.0 -1.0 - 0.0 0.0 10.0 10.9 208 105 6.00 0.00 50 11.3 - - - - - - - - - 12.3
5/1/26 83.4 1512 40.4 0626 0.00 0.00 26.00 8.7 1823 WSW | 238 1.3 49.4 100 28 3.4 129.2 6.2 6.2 -4.5 - 0.0 0.0 14.0 11.9 198 94 9.51 0.00 60 11.8 - - - - - - - - - 12.3
4/30/26 84.2 1528 35.9 0611 0.00 3.76 26.00 12.7 1800 WNW | 285 1.1 44.9 100 27 3.0 122.5 6.5 6.5 -2.0 - 0.0 0.0 13.1 10.0 184 82 9.04 0.00 40 11.4 - - - - - - - - - 12.3
4/29/26 79.5 1556 35.4 0615 0.00 3.76 26.00 12.9 1620 WSW | 254 1.3 42.9 100 26 5.0 81.7 8.1 8.1 -2.0 85 0.0 0.0 11.2 7.5 171 72 7.67 0.00 20 11.4 - - - - - - - - - 12.3
4/28/26 72.4 1611 33.9 0627 0.00 3.76 26.00 10.1 1744 WNW | 295 1.2 42.5 100 33 5.6 24.7 8.7 8.7 1.5 85 0.0 0.0 7.9 3.2 160 65 0.98 0.00 0 10.8 - - - - - - - - - 12.4
4/27/26 66.6 1523 40.5 0048 0.00 3.76 26.00 13.2 1643 NNW | 342 1.5 43.4 97 39 0.0 0.0 5.1 5.1 8.0 84 0.0 0.0 5.0 3.5 152 61 0.00 0.00 0 10.3 - - - - - - - - - 12.4
4/26/26 61.8 1531 44.1 0654 0.00 3.76 26.00 14.5 1713 W | 260 2.1 42.1 92 49 0.0 0.0 1.1 1.1 12.5 84 0.0 0.0 2.9 3.0 147 58 0.00 0.00 0 7.4 - - - - - - - - - 12.4
4/25/26 65.9 1446 38.5 0346 0.00 3.76 26.00 16.2 1829 SW | 227 2.1 44.7 100 52 7.1 0.0 6.8 6.8 9.0 83 0.0 0.0 4.1 2.2 144 55 0.00 0.00 0 8.5 - - - - - - - - - 12.4
4/24/26 74.1 1533 35.6 0636 0.00 3.76 26.00 13.5 1659 SW | 235 1.6 44.5 100 26 7.6 38.8 8.5 8.5 1.5 83 0.0 0.0 8.5 4.9 140 53 4.24 0.00 0 11.0 - - - - - - - - - 12.4
4/23/26 72.4 1625 31.3 0637 0.00 3.76 26.00 9.4 1801 W | 259 1.3 41.1 100 30 6.5 24.9 9.1 7.5 -1.5 83 1.6 0.0 7.5 1.8 131 48 2.32 0.00 0 10.5 - - - - - - - - - 12.4
4/22/26 61.5 1456 37.6 0059 0.00 3.76 26.00 12.0 1519 E | 81 1.6 43.6 100 50 8.8 0.0 10.4 10.4 11.0 83 0.0 0.0 3.6 0.0 124 46 0.00 0.00 0 8.6 - - - - - - - - - 12.3
4/21/26 58.9 1655 39.0 2351 0.31 3.76 26.00 15.8 1454 WSW | 242 2.1 44.6 100 50 11.2 0.0 4.5 4.5 15.0 83 0.0 0.0 1.6 0.0 120 46 0.00 0.00 0 2.9 1.24 0.72 0900 0.01 0534 0.10 0908 0.27 0940 12.3
4/20/26 52.6 1318 43.3 0404 0.93 3.45 25.69 15.6 1152 ESE | 108 1.6 45.9 100 58 21.4 0.0 3.9 3.9 17.0 82 0.0 0.0 0.3 0.0 119 46 0.00 0.00 0 0.0 0.93 0.34 1549 0.01 0658 0.05 1231 0.14 1347 12.4
4/19/26 71.2 1421 33.4 0643 0.00 2.52 24.76 13.9 1443 S | 176 1.5 31.8 100 12 3.4 17.1 7.6 7.6 3.5 81 0.0 0.0 6.8 2.3 118 46 0.91 0.00 0 10.1 - - - - - - - - - 12.4
4/18/26 75.2 1514 30.7 0630 0.00 2.52 24.76 10.3 1221 ENE | 74 1.3 38.3 100 24 3.9 45.2 8.3 6.3 -3.5 81 2.0 0.0 8.7 3.0 112 44 4.86 0.00 0 10.6 - - - - - - - - - 12.4
4/17/26 72.2 1521 26.8 0647 0.00 2.52 24.76 10.3 1337 E | 79 1.4 31.1 99 14 1.3 24.1 10.8 5.5 -2.5 81 5.3 1.5 7.2 0.0 103 41 1.63 0.00 10 10.1 - - - - - - - - - 12.2
4/16/26 66.8 1629 33.1 0633 0.00 2.52 24.76 11.3 1637 SE | 142 1.7 34.6 100 21 6.3 1.9 11.3 11.3 8.0 80 0.0 0.0 5.2 0.0 96 41 0.00 0.00 20 9.1 - - - - - - - - - 12.4
4/15/26 64.4 1637 33.2 0555 0.00 2.52 24.76 18.1 1531 W | 271 1.6 42.7 100 50 9.6 0.0 9.2 9.2 7.5 79 0.0 0.0 4.1 0.0 90 41 0.00 0.00 30 8.2 - - - - - - - - - 12.4
4/14/26 68.8 1621 30.8 0630 0.00 2.52 24.76 11.8 1546 WSW | 249 1.3 40.9 100 38 6.3 6.3 9.9 7.7 2.0 79 2.2 0.0 5.4 0.0 86 41 0.00 0.00 40 9.1 - - - - - - - - - 12.4
4/13/26 66.1 1526 31.5 0514 0.00 2.52 24.76 11.8 1743 W | 265 1.1 40.4 100 40 8.4 0.0 10.4 9.7 7.5 78 0.7 0.0 3.8 0.0 81 41 0.00 0.00 50 8.1 - - - - - - - - - 12.5
4/12/26 59.1 1620 38.8 0059 0.64 2.52 24.76 15.0 0749 SW | 217 2.1 42.5 100 49 11.8 0.0 14.7 14.7 18.5 77 0.0 0.0 0.9 0.0 77 41 0.00 0.00 60 1.7 2.46 0.80 0847 0.01 0108 0.08 0851 0.17 0937 12.4
4/11/26 53.8 1451 41.0 2158 0.56 1.88 24.12 20.5 1616 SW | 217 2.1 46.1 100 74 21.8 0.0 8.6 8.6 16.5 77 0.0 0.0 0.4 0.0 76 41 0.00 0.00 70 0.0 1.82 0.68 1609 0.01 0805 0.06 1616 0.14 1611 12.4
4/10/26 58.9 1202 43.4 0317 1.26 1.32 23.56 9.9 1218 ENE | 72 1.1 49.3 100 71 18.7 0.0 1.4 1.4 11.0 76 0.0 0.0 1.7 1.2 76 41 0.00 0.00 80 1.6 1.26 1.90 1846 0.02 1303 0.17 1851 0.54 1908 12.4
4/9/26 71.3 1551 39.5 0631 0.00 0.06 22.30 15.8 1700 SW | 228 1.8 47.4 100 46 7.6 17.4 6.6 6.6 2.0 75 0.0 0.0 7.4 5.4 74 40 0.38 0.00 90 10.1 - - - - - - - - - 12.4
4/8/26 79.4 1542 39.0 0651 0.00 0.06 22.30 14.2 1657 WSW | 249 1.9 46.2 97 38 1.0 83.2 6.3 6.3 -1.5 75 0.0 0.0 11.1 9.2 67 34 8.04 0.00 100 10.5 - - - - - - - - - 12.4
4/7/26 78.6 1504 33.1 0652 0.00 0.06 22.30 14.5 1446 W | 280 1.6 37.8 100 16 5.2 73.7 7.1 7.1 -1.5 75 0.0 0.0 10.2 5.8 56 25 6.48 0.00 100 10.3 - - - - - - - - - 12.4
4/6/26 80.0 1436 33.5 0653 0.00 0.06 22.30 14.4 1553 WSW | 250 1.7 41.2 100 16 5.0 93.3 8.0 8.0 -2.5 75 0.0 0.0 11.5 6.7 45 19 7.99 0.00 100 10.5 - - - - - - - - - 12.4
4/5/26 81.3 1455 33.4 0506 0.00 0.06 22.30 10.3 1554 SW | 224 1.2 38.9 100 19 5.4 98.1 8.9 8.9 -2.5 75 0.0 0.0 11.4 7.4 34 12 8.07 0.00 90 10.4 - - - - - - - - - 12.4
4/4/26 80.1 1611 28.8 0644 0.00 0.06 22.30 14.6 1408 SSE | 152 1.5 35.3 100 18 3.7 84.4 9.5 5.5 -4.5 75 4.0 0.0 10.5 4.5 22 5 7.57 0.00 70 10.0 - - - - - - - - - 12.3
4/3/26 74.3 1749 26.7 0651 0.00 0.06 22.30 9.5 1310 ENE | 75 1.5 32.5 100 16 2.1 48.2 11.8 6.1 -2.5 75 5.8 1.4 7.9 0.5 12 1 5.64 0.00 50 9.4 - - - - - - - - - 12.3
Max 84.2 - 44.6 - 1.26 3.76 26.00 20.5 - - 2.1 49.4 100 74 21.8 129.2 14.7 14.7 18.5 85 5.8 1.5 14.0 11.9 - - 9.51 0.00 - 11.8 2.46 1.90 - 0.02 - 0.17 - 0.54 - 12.5
Avg - - - - - - - - - - 1.6 41.8 - - - - 7.7 7.0 4.0 80 0.7 0.1 6.8 3.5 - - 3.04 0.00 - 8.5 1.54 - - - - - - - - -
Min 52.6 - 26.7 - 0.00 0.00 22.30 8.7 - - 1.1 31.1 92 12 0.0 0.0 1.0 1.0 -4.5 75 0.0 0.0 0.3 0.0 - - 0.00 0.00 - 0.0 0.93 0.34 - 0.01 - 0.05 - 0.14 - 12.2
Total - - - - - - - - - - - - - - - - 230.3 208.8 120.0 - 21.5 2.9 203.9 104.9 - - 91.32 0.00 - 255.8 - - - - - - - - - -

Climate Summary

Scotts Valley

Current Year | Showing 1/1/26 - 5/2/26
as of 5/3/26 2:53 PM PDT
Temperature (°F) Max Wind Gust (mph) Precip (in) Days
Month Days Avg High Avg Low Max Min Avg Max Total Daily Min Temp < 28 Daily Min Temp < 32 Daily Max Temp > 90 Daily Max Temp > 100 Daily Rain > 0.01 Daily Rain > 0.1
Jan 2026 31 63.1 29.5 78.1 19.1 10.1 27.5 3.99 19 22 0 0 7 6
Feb 2026 28 61.7 34.2 76.1 20.9 12.1 23.3 5.27 8 16 0 0 10 9
Mar 2026 31 78.3 34.7 93.6 27 12.5 23 0.01 1 8 4 0 0 0
Apr 2026 30 69 35.5 84.2 26.7 13.4 20.5 3.76 2 7 0 0 7 5
May 2026 2 80.3 42.5 83.4 40.4 11 13.3 0 0 0 0 0 0 0
Total 122 - - - - - - 13.03 30 53 4 0 24 20
Average 24.4 68.4 33.6 68.4 33.6 12 - 2.61 6 10.6 0.8 0 4.8 4
Maximum 31 80.3 42.5 93.6 - - 27.5 5.27 19 22 4 0 10 9
Minimum 2 61.7 29.5 - 19.1 - - 0 0 0 0 0 0 0

Climate Summary

Scotts Valley

Last Year | Showing 1/1/25 - 12/31/25
as of 5/3/26 2:53 PM PDT
Temperature (°F) Max Wind Gust (mph) Precip (in) Days
Month Days Avg High Avg Low Max Min Avg Max Total Daily Min Temp < 28 Daily Min Temp < 32 Daily Max Temp > 90 Daily Max Temp > 100 Daily Rain > 0.01 Daily Rain > 0.1
Jan 2025 31 62.5 25.8 71.6 17.8 8.7 19.2 0.91 23 25 0 0 4 2
Feb 2025 28 58.6 31.5 81.6 20 12.9 24.6 7.97 9 18 0 0 11 8
Mar 2025 31 60.1 34.2 83.9 25.1 16.7 29.2 3.71 6 12 0 0 12 7
Apr 2025 30 71.9 36.7 83.6 28.6 13.4 22.2 0.74 0 5 0 0 5 1
May 2025 31 79.4 38.6 98.3 33 15.7 22.7 0.11 0 0 2 0 1 1
Jun 2025 30 87.8 44.2 96.3 36.3 15.4 20.8 0 0 0 11 0 0 0
Jul 2025 31 91.5 47.9 100.7 38 14.9 20.7 0 0 0 20 1 0 0
Aug 2025 31 94.9 46.8 102.5 35.1 15.6 22.5 0 0 0 26 7 0 0
Sep 2025 30 87.4 47.6 101.4 38.8 13.6 21.3 0.8 0 0 13 1 5 3
Oct 2025 31 74.1 38.1 89.2 29.1 11.4 17.6 1.11 0 3 0 0 5 4
Nov 2025 30 67.5 34.7 80.8 24 9.9 21.4 3.11 7 12 0 0 10 6
Dec 2025 31 63.1 32.1 75.9 21.6 10.5 33.6 7.95 17 20 0 0 11 10
Total 365 - - - - - - 26.41 62 95 72 9 64 42
Average 30.4 75 38.2 75 38.2 13.2 - 2.2 5.2 7.9 6 0.8 5.3 3.5
Maximum 31 94.9 47.9 102.5 - - 33.6 7.97 23 25 26 7 12 10
Minimum 28 58.6 25.8 - 17.8 - - 0 0 0 0 0 0 0
Calm: 13.4%
Calm: 1.7%